2026/07/26

Sensor Date Temp./Hum.
h4-hermonville 26-07-2026 - 23:58 20.5°C / 62%
h2-hermonville 26-07-2026 - 23:54 20.5°C / 63.5%
h1-hermonville 26-07-2026 - 23:54 19.7°C / 66%
h3-hermonville 26-07-2026 - 23:50 20.2°C / 64%
h4-hermonville 26-07-2026 - 23:48 20.6°C / 62%
h2-hermonville 26-07-2026 - 23:44 20.4°C / 63.5%
h1-hermonville 26-07-2026 - 23:44 19.9°C / 65%
h3-hermonville 26-07-2026 - 23:40 20.3°C / 63%
h4-hermonville 26-07-2026 - 23:38 20.7°C / 61.5%
h2-hermonville 26-07-2026 - 23:34 20.9°C / 62.5%
h1-hermonville 26-07-2026 - 23:34 20°C / 65%
h3-hermonville 26-07-2026 - 23:30 20.6°C / 63%
h4-hermonville 26-07-2026 - 23:28 20.9°C / 61%
h2-hermonville 26-07-2026 - 23:24 21.2°C / 62%
h1-hermonville 26-07-2026 - 23:24 20.2°C / 64.5%
h3-hermonville 26-07-2026 - 23:20 20.7°C / 62.5%
h4-hermonville 26-07-2026 - 23:18 21.1°C / 61%
h2-hermonville 26-07-2026 - 23:14 21.5°C / 61.5%
h1-hermonville 26-07-2026 - 23:14 20.3°C / 64.5%
h3-hermonville 26-07-2026 - 23:10 21.1°C / 62%
h4-hermonville 26-07-2026 - 23:08 21.3°C / 60.5%
h2-hermonville 26-07-2026 - 23:04 21.7°C / 61%
h1-hermonville 26-07-2026 - 23:04 20.4°C / 64%
h3-hermonville 26-07-2026 - 23:00 21.1°C / 62%
h4-hermonville 26-07-2026 - 22:58 21.4°C / 61%
h2-hermonville 26-07-2026 - 22:54 21.7°C / 61%
h1-hermonville 26-07-2026 - 22:54 20.7°C / 64%
h3-hermonville 26-07-2026 - 22:50 21.2°C / 61.5%
h4-hermonville 26-07-2026 - 22:48 21.6°C / 60.5%
h2-hermonville 26-07-2026 - 22:44 22.1°C / 60%
h1-hermonville 26-07-2026 - 22:44 20.9°C / 63.5%
h3-hermonville 26-07-2026 - 22:40 21.5°C / 61.5%
h4-hermonville 26-07-2026 - 22:38 21.8°C / 60%
h1-hermonville 26-07-2026 - 22:34 21°C / 63%
h3-hermonville 26-07-2026 - 22:30 21.6°C / 61.5%
h2-hermonville 26-07-2026 - 22:24 22.2°C / 61%
h1-hermonville 26-07-2026 - 22:24 21.3°C / 63%
h3-hermonville 26-07-2026 - 22:20 21.8°C / 61.5%
h4-hermonville 26-07-2026 - 22:18 22°C / 60.5%
h2-hermonville 26-07-2026 - 22:14 22.5°C / 61.5%
h1-hermonville 26-07-2026 - 22:14 21.6°C / 62.5%
h3-hermonville 26-07-2026 - 22:10 22°C / 62%
h4-hermonville 26-07-2026 - 22:08 22.1°C / 62%
h2-hermonville 26-07-2026 - 22:04 22.6°C / 63%
h1-hermonville 26-07-2026 - 22:04 21.7°C / 65%
h3-hermonville 26-07-2026 - 22:00 22°C / 65.5%
h4-hermonville 26-07-2026 - 21:58 22.1°C / 64.5%
h2-hermonville 26-07-2026 - 21:54 22.6°C / 65%
h1-hermonville 26-07-2026 - 21:54 21.7°C / 67.5%
h3-hermonville 26-07-2026 - 21:50 22°C / 66.5%
h4-hermonville 26-07-2026 - 21:48 22.2°C / 65%
h2-hermonville 26-07-2026 - 21:44 22.6°C / 65.5%
h1-hermonville 26-07-2026 - 21:44 21.8°C / 68%
h3-hermonville 26-07-2026 - 21:40 22.2°C / 66.5%
h4-hermonville 26-07-2026 - 21:38 22.4°C / 65%
h1-hermonville 26-07-2026 - 21:34 22.1°C / 67.5%
h3-hermonville 26-07-2026 - 21:30 22.3°C / 66.5%
h4-hermonville 26-07-2026 - 21:28 22.5°C / 65%
h2-hermonville 26-07-2026 - 21:24 22.8°C / 65.5%
h1-hermonville 26-07-2026 - 21:24 22.2°C / 67%
h3-hermonville 26-07-2026 - 21:20 22.3°C / 66%
h4-hermonville 26-07-2026 - 21:18 22.5°C / 65%
h2-hermonville 26-07-2026 - 21:14 22.7°C / 65.5%
h1-hermonville 26-07-2026 - 21:14 22.2°C / 67%
h3-hermonville 26-07-2026 - 21:10 22.3°C / 66%
h4-hermonville 26-07-2026 - 21:08 22.5°C / 64.5%
h2-hermonville 26-07-2026 - 21:04 23.1°C / 64.5%
h1-hermonville 26-07-2026 - 21:04 22.4°C / 67%
h3-hermonville 26-07-2026 - 21:00 22.5°C / 66%
h4-hermonville 26-07-2026 - 20:58 22.6°C / 64.5%
h2-hermonville 26-07-2026 - 20:54 22.9°C / 65%
h1-hermonville 26-07-2026 - 20:54 22.3°C / 67.5%
h3-hermonville 26-07-2026 - 20:50 22.6°C / 66.5%
h4-hermonville 26-07-2026 - 20:48 22.7°C / 65%
h2-hermonville 26-07-2026 - 20:44 23.3°C / 64.5%
h1-hermonville 26-07-2026 - 20:44 22.3°C / 68%
h3-hermonville 26-07-2026 - 20:40 22.7°C / 66.5%
h4-hermonville 26-07-2026 - 20:38 22.9°C / 65%
h2-hermonville 26-07-2026 - 20:34 23.4°C / 65%
h1-hermonville 26-07-2026 - 20:34 22.6°C / 67.5%
h3-hermonville 26-07-2026 - 20:30 22.8°C / 67%
h4-hermonville 26-07-2026 - 20:28 23°C / 65%
h2-hermonville 26-07-2026 - 20:24 23.6°C / 65%
h1-hermonville 26-07-2026 - 20:24 22.7°C / 68%
h3-hermonville 26-07-2026 - 20:20 22.7°C / 67.5%
h4-hermonville 26-07-2026 - 20:18 23°C / 65.5%
h2-hermonville 26-07-2026 - 20:14 23.6°C / 63%
h1-hermonville 26-07-2026 - 20:14 22.6°C / 68%
h3-hermonville 26-07-2026 - 20:10 23.1°C / 65.5%
h4-hermonville 26-07-2026 - 20:08 23.2°C / 63.5%
h2-hermonville 26-07-2026 - 20:04 23.9°C / 62%
h1-hermonville 26-07-2026 - 20:04 23.1°C / 65%
h3-hermonville 26-07-2026 - 20:00 23.4°C / 63%
h4-hermonville 26-07-2026 - 19:58 23.4°C / 61.5%
h2-hermonville 26-07-2026 - 19:54 24.1°C / 60%
h1-hermonville 26-07-2026 - 19:54 23.5°C / 61.5%
h3-hermonville 26-07-2026 - 19:50 23.4°C / 60.5%
h2-hermonville 26-07-2026 - 19:44 23.7°C / 60.5%
h1-hermonville 26-07-2026 - 19:44 23.4°C / 61%
h3-hermonville 26-07-2026 - 19:40 23.5°C / 60%
h2-hermonville 26-07-2026 - 19:34 23.7°C / 60%
h1-hermonville 26-07-2026 - 19:34 23.5°C / 60.5%
h3-hermonville 26-07-2026 - 19:30 23.6°C / 59.5%
h2-hermonville 26-07-2026 - 19:24 23.8°C / 59%
h1-hermonville 26-07-2026 - 19:24 23.5°C / 60%
h3-hermonville 26-07-2026 - 19:20 23.5°C / 59%
h4-hermonville 26-07-2026 - 19:18 23.6°C / 59%
h2-hermonville 26-07-2026 - 19:14 24°C / 59%
h1-hermonville 26-07-2026 - 19:14 23.7°C / 59.5%
h3-hermonville 26-07-2026 - 19:10 23.6°C / 59%
h2-hermonville 26-07-2026 - 19:04 24°C / 59%
h1-hermonville 26-07-2026 - 19:04 23.7°C / 59.5%
h3-hermonville 26-07-2026 - 19:00 23.7°C / 59%
h4-hermonville 26-07-2026 - 18:58 23.5°C / 58.5%
h2-hermonville 26-07-2026 - 18:54 24.1°C / 58%
h1-hermonville 26-07-2026 - 18:54 23.7°C / 59%
h3-hermonville 26-07-2026 - 18:50 23.7°C / 58.5%
h4-hermonville 26-07-2026 - 18:48 23.5°C / 58.5%
h2-hermonville 26-07-2026 - 18:44 24.3°C / 57.5%
h1-hermonville 26-07-2026 - 18:44 23.8°C / 58.5%
h3-hermonville 26-07-2026 - 18:40 23.7°C / 59%
h4-hermonville 26-07-2026 - 18:38 23.5°C / 59%
h2-hermonville 26-07-2026 - 18:34 24.2°C / 58%
h1-hermonville 26-07-2026 - 18:34 23.7°C / 59%
h3-hermonville 26-07-2026 - 18:30 23.8°C / 58.5%
h4-hermonville 26-07-2026 - 18:28 23.5°C / 58.5%
h2-hermonville 26-07-2026 - 18:24 24.4°C / 57.5%
h1-hermonville 26-07-2026 - 18:24 23.7°C / 59.5%
h3-hermonville 26-07-2026 - 18:20 23.9°C / 58.5%
h4-hermonville 26-07-2026 - 18:18 23.3°C / 59.5%
h2-hermonville 26-07-2026 - 18:14 24.6°C / 57%
h1-hermonville 26-07-2026 - 18:14 23.6°C / 59.5%
h3-hermonville 26-07-2026 - 18:10 23.7°C / 59%
h2-hermonville 26-07-2026 - 18:04 25.2°C / 55%
h1-hermonville 26-07-2026 - 18:04 23.8°C / 59%
h3-hermonville 26-07-2026 - 18:00 23.8°C / 59%
h4-hermonville 26-07-2026 - 17:58 23.4°C / 59.5%
h2-hermonville 26-07-2026 - 17:54 24.1°C / 58.5%
h1-hermonville 26-07-2026 - 17:54 23.6°C / 60%
h3-hermonville 26-07-2026 - 17:50 23.6°C / 60%
h4-hermonville 26-07-2026 - 17:48 23.2°C / 60.5%
h2-hermonville 26-07-2026 - 17:44 23.9°C / 60%
h1-hermonville 26-07-2026 - 17:44 23.5°C / 61%
h3-hermonville 26-07-2026 - 17:40 23.4°C / 61%
h4-hermonville 26-07-2026 - 17:38 23.3°C / 60.5%
h2-hermonville 26-07-2026 - 17:34 23.9°C / 59.5%
h3-hermonville 26-07-2026 - 17:30 23.2°C / 61%
h4-hermonville 26-07-2026 - 17:28 23.1°C / 60.5%
h2-hermonville 26-07-2026 - 17:24 23.8°C / 60%
h1-hermonville 26-07-2026 - 17:24 23.3°C / 61%
h3-hermonville 26-07-2026 - 17:20 23.2°C / 61.5%
h4-hermonville 26-07-2026 - 17:18 22.9°C / 61.5%
h2-hermonville 26-07-2026 - 17:14 23.2°C / 61.5%
h1-hermonville 26-07-2026 - 17:14 23.2°C / 61.5%
h3-hermonville 26-07-2026 - 17:10 23°C / 62.5%
h4-hermonville 26-07-2026 - 17:08 22.9°C / 62%
h2-hermonville 26-07-2026 - 17:04 23.1°C / 62.5%
h1-hermonville 26-07-2026 - 17:04 23°C / 62.5%
h3-hermonville 26-07-2026 - 17:00 22.8°C / 63%
h4-hermonville 26-07-2026 - 16:58 22.8°C / 62%
h2-hermonville 26-07-2026 - 16:54 22.8°C / 63%
h1-hermonville 26-07-2026 - 16:54 22.8°C / 63%
h3-hermonville 26-07-2026 - 16:50 22.5°C / 63.5%
h4-hermonville 26-07-2026 - 16:48 22.6°C / 62.5%
h2-hermonville 26-07-2026 - 16:44 22.7°C / 63.5%
h1-hermonville 26-07-2026 - 16:44 22.8°C / 63%
h3-hermonville 26-07-2026 - 16:40 22.4°C / 64%
h4-hermonville 26-07-2026 - 16:38 22.7°C / 62.5%
h2-hermonville 26-07-2026 - 16:34 22.7°C / 64%
h3-hermonville 26-07-2026 - 16:30 22.3°C / 64.5%
h4-hermonville 26-07-2026 - 16:28 22.7°C / 62.5%
h1-hermonville 26-07-2026 - 16:24 22.6°C / 64%
h3-hermonville 26-07-2026 - 16:20 22.2°C / 65%
h4-hermonville 26-07-2026 - 16:18 22.6°C / 63%
h2-hermonville 26-07-2026 - 16:14 22.9°C / 64.5%
h1-hermonville 26-07-2026 - 16:14 22.6°C / 64.5%
h3-hermonville 26-07-2026 - 16:10 22.1°C / 65%
h4-hermonville 26-07-2026 - 16:08 22.6°C / 63%
h2-hermonville 26-07-2026 - 16:04 22.6°C / 64.5%
h1-hermonville 26-07-2026 - 16:04 22.6°C / 64.5%
h3-hermonville 26-07-2026 - 16:00 22.2°C / 65.5%
h4-hermonville 26-07-2026 - 15:58 22.4°C / 63.5%
h2-hermonville 26-07-2026 - 15:54 22.8°C / 63.5%
h1-hermonville 26-07-2026 - 15:54 22.5°C / 64%
h3-hermonville 26-07-2026 - 15:50 22.1°C / 66%
h4-hermonville 26-07-2026 - 15:48 22.3°C / 63.5%
h2-hermonville 26-07-2026 - 15:44 22°C / 66%
h1-hermonville 26-07-2026 - 15:44 22.2°C / 65%
h3-hermonville 26-07-2026 - 15:40 21.9°C / 66%
h4-hermonville 26-07-2026 - 15:38 22.5°C / 63%
h1-hermonville 26-07-2026 - 15:34 22.4°C / 64.5%
h3-hermonville 26-07-2026 - 15:30 21.9°C / 65.5%
h4-hermonville 26-07-2026 - 15:28 22.4°C / 63%
h2-hermonville 26-07-2026 - 15:24 22.3°C / 65%
h1-hermonville 26-07-2026 - 15:24 22.4°C / 64%
h3-hermonville 26-07-2026 - 15:20 22.1°C / 65.5%
h2-hermonville 26-07-2026 - 15:14 22.3°C / 65%
h1-hermonville 26-07-2026 - 15:14 22.4°C / 64.5%
h3-hermonville 26-07-2026 - 15:10 21.8°C / 65.5%
h4-hermonville 26-07-2026 - 15:08 22.5°C / 62.5%
h2-hermonville 26-07-2026 - 15:04 22.4°C / 65.5%
h3-hermonville 26-07-2026 - 15:00 21.9°C / 66%
h2-hermonville 26-07-2026 - 14:54 22.3°C / 65.5%
h1-hermonville 26-07-2026 - 14:54 22.3°C / 64.5%
h3-hermonville 26-07-2026 - 14:50 21.8°C / 66%
h4-hermonville 26-07-2026 - 14:48 22.6°C / 62.5%
h2-hermonville 26-07-2026 - 14:44 22.5°C / 65%
h1-hermonville 26-07-2026 - 14:44 22.6°C / 64.5%
h3-hermonville 26-07-2026 - 14:40 22°C / 65.5%
h4-hermonville 26-07-2026 - 14:38 22.6°C / 62.5%
h2-hermonville 26-07-2026 - 14:34 22.2°C / 65.5%
h1-hermonville 26-07-2026 - 14:34 22.5°C / 64.5%
h3-hermonville 26-07-2026 - 14:30 21.7°C / 66%
h4-hermonville 26-07-2026 - 14:28 22.4°C / 63%
h2-hermonville 26-07-2026 - 14:24 22.2°C / 65.5%
h1-hermonville 26-07-2026 - 14:24 22.2°C / 64.5%
h3-hermonville 26-07-2026 - 14:20 21.8°C / 66%
h2-hermonville 26-07-2026 - 14:14 22.2°C / 65.5%
h1-hermonville 26-07-2026 - 14:14 22.4°C / 64%
h3-hermonville 26-07-2026 - 14:10 21.8°C / 65.5%
h4-hermonville 26-07-2026 - 14:08 22.4°C / 63%
h2-hermonville 26-07-2026 - 14:04 22.1°C / 65.5%
h1-hermonville 26-07-2026 - 14:04 22.1°C / 65%
h3-hermonville 26-07-2026 - 14:00 21.8°C / 66%
h4-hermonville 26-07-2026 - 13:58 22.2°C / 64%
h2-hermonville 26-07-2026 - 13:54 22.1°C / 65.5%
h1-hermonville 26-07-2026 - 13:54 22°C / 65.5%
h3-hermonville 26-07-2026 - 13:50 21.6°C / 66.5%
h4-hermonville 26-07-2026 - 13:48 22°C / 64%
h2-hermonville 26-07-2026 - 13:44 21.7°C / 67%
h1-hermonville 26-07-2026 - 13:44 21.9°C / 66%
h3-hermonville 26-07-2026 - 13:40 21.1°C / 68%
h4-hermonville 26-07-2026 - 13:38 21.6°C / 64.5%
h2-hermonville 26-07-2026 - 13:34 21.4°C / 67.5%
h1-hermonville 26-07-2026 - 13:34 21.5°C / 67%
h3-hermonville 26-07-2026 - 13:30 21.3°C / 67.5%
h4-hermonville 26-07-2026 - 13:28 21.8°C / 64.5%
h2-hermonville 26-07-2026 - 13:24 21.7°C / 67.5%
h1-hermonville 26-07-2026 - 13:24 21.8°C / 66.5%
h3-hermonville 26-07-2026 - 13:20 21.1°C / 68.5%
h4-hermonville 26-07-2026 - 13:18 21.6°C / 65.5%
h2-hermonville 26-07-2026 - 13:14 21.1°C / 69.5%
h1-hermonville 26-07-2026 - 13:14 21.2°C / 68%
h3-hermonville 26-07-2026 - 13:10 20.6°C / 69.5%
h4-hermonville 26-07-2026 - 13:08 21.3°C / 66%
h2-hermonville 26-07-2026 - 13:04 20.7°C / 69.5%
h1-hermonville 26-07-2026 - 13:04 21°C / 68.5%
h3-hermonville 26-07-2026 - 13:00 20.4°C / 70.5%
h4-hermonville 26-07-2026 - 12:58 21.1°C / 67%
h2-hermonville 26-07-2026 - 12:54 20.5°C / 71%
h1-hermonville 26-07-2026 - 12:54 20.8°C / 69.5%
h3-hermonville 26-07-2026 - 12:50 20.1°C / 71.5%
h4-hermonville 26-07-2026 - 12:48 20.9°C / 68%
h2-hermonville 26-07-2026 - 12:44 20.2°C / 72%
h1-hermonville 26-07-2026 - 12:44 20.4°C / 70.5%
h3-hermonville 26-07-2026 - 12:40 20°C / 72.5%
h4-hermonville 26-07-2026 - 12:38 21°C / 67.5%
h2-hermonville 26-07-2026 - 12:34 20.1°C / 72.5%
h1-hermonville 26-07-2026 - 12:34 20.4°C / 71%
h3-hermonville 26-07-2026 - 12:30 20°C / 72.5%
h4-hermonville 26-07-2026 - 12:28 21.1°C / 66.5%
h2-hermonville 26-07-2026 - 12:24 20.2°C / 72.5%
h1-hermonville 26-07-2026 - 12:24 20.4°C / 71%
h3-hermonville 26-07-2026 - 12:20 19.8°C / 73.5%
h4-hermonville 26-07-2026 - 12:18 21.2°C / 67.5%
h2-hermonville 26-07-2026 - 12:14 19.8°C / 74%
h1-hermonville 26-07-2026 - 12:14 20.1°C / 72%
h3-hermonville 26-07-2026 - 12:10 19.2°C / 75%
h4-hermonville 26-07-2026 - 12:08 20.4°C / 69%
h2-hermonville 26-07-2026 - 12:04 19.7°C / 74%
h1-hermonville 26-07-2026 - 12:04 20.1°C / 72%
h3-hermonville 26-07-2026 - 12:00 19.4°C / 74.5%
h4-hermonville 26-07-2026 - 11:58 20.6°C / 68.5%
h2-hermonville 26-07-2026 - 11:54 19.7°C / 73.5%
h1-hermonville 26-07-2026 - 11:54 20°C / 71.5%
h3-hermonville 26-07-2026 - 11:50 19.5°C / 74%
h2-hermonville 26-07-2026 - 11:44 19.7°C / 73.5%
h1-hermonville 26-07-2026 - 11:44 20.1°C / 71%
h3-hermonville 26-07-2026 - 11:40 19.4°C / 74%
h4-hermonville 26-07-2026 - 11:38 20.4°C / 68.5%
h2-hermonville 26-07-2026 - 11:34 19.7°C / 73.5%
h1-hermonville 26-07-2026 - 11:34 20°C / 71.5%
h3-hermonville 26-07-2026 - 11:30 19.4°C / 73.5%
h4-hermonville 26-07-2026 - 11:28 20.6°C / 68%
h2-hermonville 26-07-2026 - 11:24 19.7°C / 73.5%
h1-hermonville 26-07-2026 - 11:24 20°C / 71.5%
h3-hermonville 26-07-2026 - 11:20 19.4°C / 73.5%
h4-hermonville 26-07-2026 - 11:18 20.6°C / 68%
h1-hermonville 26-07-2026 - 11:14 20.2°C / 70.5%
h3-hermonville 26-07-2026 - 11:10 19.6°C / 73%
h4-hermonville 26-07-2026 - 11:08 20.6°C / 67.5%
h2-hermonville 26-07-2026 - 11:04 19.8°C / 73%
h1-hermonville 26-07-2026 - 11:04 20°C / 71%
h3-hermonville 26-07-2026 - 11:00 19.3°C / 73.5%
h4-hermonville 26-07-2026 - 10:58 20.5°C / 67.5%
h2-hermonville 26-07-2026 - 10:54 19.6°C / 72.5%
h1-hermonville 26-07-2026 - 10:54 20°C / 70.5%
h3-hermonville 26-07-2026 - 10:50 19.4°C / 73%
h4-hermonville 26-07-2026 - 10:48 20.6°C / 67%
h1-hermonville 26-07-2026 - 10:44 19.9°C / 70.5%
h3-hermonville 26-07-2026 - 10:40 19.3°C / 73.5%
h4-hermonville 26-07-2026 - 10:38 20.4°C / 67%
h2-hermonville 26-07-2026 - 10:34 19.3°C / 73.5%
h1-hermonville 26-07-2026 - 10:34 19.8°C / 71%
h3-hermonville 26-07-2026 - 10:30 19.3°C / 73%
h2-hermonville 26-07-2026 - 10:24 19.5°C / 72.5%
h1-hermonville 26-07-2026 - 10:24 19.9°C / 70.5%
h3-hermonville 26-07-2026 - 10:20 19.5°C / 71%
h4-hermonville 26-07-2026 - 10:18 20.9°C / 64.5%
h2-hermonville 26-07-2026 - 10:14 19.8°C / 70.5%
h1-hermonville 26-07-2026 - 10:14 20°C / 69%
h3-hermonville 26-07-2026 - 10:10 19.7°C / 70%
h4-hermonville 26-07-2026 - 10:08 21°C / 64%
h2-hermonville 26-07-2026 - 10:04 19.8°C / 70.5%
h1-hermonville 26-07-2026 - 10:04 20.1°C / 68.5%
h3-hermonville 26-07-2026 - 10:00 19.5°C / 70%
h4-hermonville 26-07-2026 - 09:58 21.2°C / 62.5%
h2-hermonville 26-07-2026 - 09:54 19.8°C / 70%
h1-hermonville 26-07-2026 - 09:54 20°C / 68.5%
h3-hermonville 26-07-2026 - 09:50 19.6°C / 70%
h4-hermonville 26-07-2026 - 09:48 21.6°C / 61%
h2-hermonville 26-07-2026 - 09:44 19.7°C / 70.5%
h1-hermonville 26-07-2026 - 09:44 20.1°C / 68.5%
h3-hermonville 26-07-2026 - 09:40 19.6°C / 70.5%
h4-hermonville 26-07-2026 - 09:38 22.3°C / 59.5%
h2-hermonville 26-07-2026 - 09:34 19.4°C / 71.5%
h1-hermonville 26-07-2026 - 09:34 20°C / 69%
h3-hermonville 26-07-2026 - 09:30 19.3°C / 71.5%
h4-hermonville 26-07-2026 - 09:28 23.1°C / 56.5%
h2-hermonville 26-07-2026 - 09:24 19.3°C / 72%
h1-hermonville 26-07-2026 - 09:24 19.7°C / 69.5%
h3-hermonville 26-07-2026 - 09:20 19°C / 72%
h4-hermonville 26-07-2026 - 09:18 24.2°C / 53%
h2-hermonville 26-07-2026 - 09:14 18.9°C / 72.5%
h1-hermonville 26-07-2026 - 09:14 19.4°C / 70%
h3-hermonville 26-07-2026 - 09:10 18.7°C / 72%
h4-hermonville 26-07-2026 - 09:08 26.2°C / 48.5%
h2-hermonville 26-07-2026 - 09:04 18.7°C / 73.5%
h1-hermonville 26-07-2026 - 09:04 19.1°C / 71%
h3-hermonville 26-07-2026 - 09:00 18.4°C / 73.5%
h4-hermonville 26-07-2026 - 08:58 25.3°C / 51%
h2-hermonville 26-07-2026 - 08:54 18.3°C / 74.5%
h1-hermonville 26-07-2026 - 08:54 18.8°C / 72%
h3-hermonville 26-07-2026 - 08:50 18.2°C / 74.5%
h4-hermonville 26-07-2026 - 08:48 24.1°C / 54.5%
h2-hermonville 26-07-2026 - 08:44 18°C / 75.5%
h1-hermonville 26-07-2026 - 08:44 18.7°C / 72.5%
h3-hermonville 26-07-2026 - 08:40 18°C / 75%
h4-hermonville 26-07-2026 - 08:38 22.1°C / 60%
h2-hermonville 26-07-2026 - 08:34 17.8°C / 76%
h1-hermonville 26-07-2026 - 08:34 18.6°C / 72%
h3-hermonville 26-07-2026 - 08:30 18°C / 74.5%
h4-hermonville 26-07-2026 - 08:28 20.8°C / 63%
h1-hermonville 26-07-2026 - 08:24 18.5°C / 72%
h3-hermonville 26-07-2026 - 08:20 17.5°C / 75.5%
h4-hermonville 26-07-2026 - 08:18 20.5°C / 63.5%
h2-hermonville 26-07-2026 - 08:14 17.5°C / 77%
h1-hermonville 26-07-2026 - 08:14 18.4°C / 72.5%
h3-hermonville 26-07-2026 - 08:10 17.6°C / 75.5%
h4-hermonville 26-07-2026 - 08:08 20°C / 65%
h2-hermonville 26-07-2026 - 08:04 17°C / 78.5%
h1-hermonville 26-07-2026 - 08:04 18.3°C / 72%
h3-hermonville 26-07-2026 - 08:00 17.4°C / 76%
h4-hermonville 26-07-2026 - 07:58 19.7°C / 66%
h2-hermonville 26-07-2026 - 07:54 16.9°C / 79%
h1-hermonville 26-07-2026 - 07:54 18.1°C / 72.5%
h3-hermonville 26-07-2026 - 07:50 17.1°C / 76.5%
h4-hermonville 26-07-2026 - 07:48 19.4°C / 66%
h2-hermonville 26-07-2026 - 07:44 16.6°C / 79%
h1-hermonville 26-07-2026 - 07:44 18.1°C / 72%
h4-hermonville 26-07-2026 - 07:38 19.3°C / 66%
h2-hermonville 26-07-2026 - 07:34 16.6°C / 79%
h1-hermonville 26-07-2026 - 07:34 17.9°C / 71.5%
h3-hermonville 26-07-2026 - 07:30 16.9°C / 75.5%
h4-hermonville 26-07-2026 - 07:28 19.1°C / 66%
h2-hermonville 26-07-2026 - 07:24 16.5°C / 78%
h1-hermonville 26-07-2026 - 07:24 17.9°C / 71%
h3-hermonville 26-07-2026 - 07:20 16.5°C / 76.5%
h4-hermonville 26-07-2026 - 07:18 18.9°C / 66%
h2-hermonville 26-07-2026 - 07:14 16.3°C / 78%
h1-hermonville 26-07-2026 - 07:14 17.7°C / 71.5%
h3-hermonville 26-07-2026 - 07:10 16.4°C / 76.5%
h4-hermonville 26-07-2026 - 07:08 18.6°C / 66%
h2-hermonville 26-07-2026 - 07:04 16.1°C / 77.5%
h1-hermonville 26-07-2026 - 07:04 17.6°C / 71%
h3-hermonville 26-07-2026 - 07:00 16.4°C / 76%
h4-hermonville 26-07-2026 - 06:58 18.5°C / 65.5%
h2-hermonville 26-07-2026 - 06:54 16.1°C / 77%
h1-hermonville 26-07-2026 - 06:54 17.5°C / 71%
h3-hermonville 26-07-2026 - 06:50 16.1°C / 76%
h4-hermonville 26-07-2026 - 06:48 18.4°C / 65.5%
h2-hermonville 26-07-2026 - 06:44 16.1°C / 76%
h1-hermonville 26-07-2026 - 06:44 17.4°C / 70.5%
h3-hermonville 26-07-2026 - 06:40 16.4°C / 74.5%
h4-hermonville 26-07-2026 - 06:38 18.5°C / 65%
h2-hermonville 26-07-2026 - 06:34 16.4°C / 74.5%
h1-hermonville 26-07-2026 - 06:34 17.5°C / 70%
h3-hermonville 26-07-2026 - 06:30 16.5°C / 73.5%
h4-hermonville 26-07-2026 - 06:28 18.5°C / 64.5%
h2-hermonville 26-07-2026 - 06:24 16.3°C / 74.5%
h1-hermonville 26-07-2026 - 06:24 17.3°C / 70.5%
h3-hermonville 26-07-2026 - 06:20 16.8°C / 73%
h4-hermonville 26-07-2026 - 06:18 18.5°C / 65%
h2-hermonville 26-07-2026 - 06:14 16.6°C / 74%
h1-hermonville 26-07-2026 - 06:14 17.3°C / 71%
h3-hermonville 26-07-2026 - 06:10 16.6°C / 74%
h2-hermonville 26-07-2026 - 06:04 16.5°C / 74.5%
h1-hermonville 26-07-2026 - 06:04 17.3°C / 71%
h3-hermonville 26-07-2026 - 06:00 16.5°C / 73.5%
h4-hermonville 26-07-2026 - 05:58 18.6°C / 64%
h2-hermonville 26-07-2026 - 05:54 16.3°C / 73.5%
h1-hermonville 26-07-2026 - 05:54 17.4°C / 69%
h3-hermonville 26-07-2026 - 05:50 16.7°C / 71%
h4-hermonville 26-07-2026 - 05:48 18.7°C / 62%
h2-hermonville 26-07-2026 - 05:44 16.5°C / 72.5%
h1-hermonville 26-07-2026 - 05:44 17.6°C / 67.5%
h3-hermonville 26-07-2026 - 05:40 17.1°C / 69%
h4-hermonville 26-07-2026 - 05:38 18.7°C / 61.5%
h2-hermonville 26-07-2026 - 05:34 16.6°C / 71.5%
h1-hermonville 26-07-2026 - 05:34 17.7°C / 66.5%
h4-hermonville 26-07-2026 - 05:28 18.9°C / 61.5%
h2-hermonville 26-07-2026 - 05:24 16.7°C / 71%
h1-hermonville 26-07-2026 - 05:24 17.8°C / 66.5%
h3-hermonville 26-07-2026 - 05:20 17.7°C / 66.5%
h2-hermonville 26-07-2026 - 05:14 16.9°C / 70%
h1-hermonville 26-07-2026 - 05:14 17.9°C / 66%
h3-hermonville 26-07-2026 - 05:10 18°C / 65%
h4-hermonville 26-07-2026 - 05:08 18.6°C / 62%
h2-hermonville 26-07-2026 - 05:04 16.9°C / 70%
h1-hermonville 26-07-2026 - 05:04 17.9°C / 66%
h3-hermonville 26-07-2026 - 05:00 18.2°C / 64.5%
h4-hermonville 26-07-2026 - 04:58 18.8°C / 61.5%
h2-hermonville 26-07-2026 - 04:54 16.9°C / 70%
h1-hermonville 26-07-2026 - 04:54 18°C / 65.5%
h3-hermonville 26-07-2026 - 04:50 18.1°C / 65%
h4-hermonville 26-07-2026 - 04:48 18.8°C / 61.5%
h2-hermonville 26-07-2026 - 04:44 17.2°C / 69%
h1-hermonville 26-07-2026 - 04:44 18.1°C / 65.5%
h3-hermonville 26-07-2026 - 04:40 18.4°C / 63.5%
h4-hermonville 26-07-2026 - 04:38 18.9°C / 61.5%
h2-hermonville 26-07-2026 - 04:34 17.3°C / 68.5%
h1-hermonville 26-07-2026 - 04:34 18.2°C / 65%
h3-hermonville 26-07-2026 - 04:30 18.5°C / 63.5%
h4-hermonville 26-07-2026 - 04:28 18.9°C / 61%
h2-hermonville 26-07-2026 - 04:24 17.4°C / 68%
h1-hermonville 26-07-2026 - 04:24 18.2°C / 64.5%
h3-hermonville 26-07-2026 - 04:20 18.6°C / 63%
h4-hermonville 26-07-2026 - 04:18 19.2°C / 60.5%
h2-hermonville 26-07-2026 - 04:14 17.4°C / 68.5%
h1-hermonville 26-07-2026 - 04:14 18.3°C / 64.5%
h3-hermonville 26-07-2026 - 04:10 18.7°C / 63%
h4-hermonville 26-07-2026 - 04:08 19.4°C / 59.5%
h2-hermonville 26-07-2026 - 04:04 17.3°C / 68.5%
h1-hermonville 26-07-2026 - 04:04 18.4°C / 64%
h3-hermonville 26-07-2026 - 04:00 19.1°C / 62%
h4-hermonville 26-07-2026 - 03:58 19.7°C / 59%
h2-hermonville 26-07-2026 - 03:54 17.3°C / 69%
h1-hermonville 26-07-2026 - 03:54 18.4°C / 64%
h3-hermonville 26-07-2026 - 03:50 19°C / 62.5%
h4-hermonville 26-07-2026 - 03:48 19.8°C / 59%
h2-hermonville 26-07-2026 - 03:44 17.3°C / 68.5%
h1-hermonville 26-07-2026 - 03:44 18.7°C / 64%
h3-hermonville 26-07-2026 - 03:40 18.3°C / 65%
h4-hermonville 26-07-2026 - 03:38 19.9°C / 58.5%
h1-hermonville 26-07-2026 - 03:34 18.8°C / 63.5%
h3-hermonville 26-07-2026 - 03:30 19.2°C / 62%
h4-hermonville 26-07-2026 - 03:28 19.8°C / 59%
h2-hermonville 26-07-2026 - 03:24 18°C / 67%
h1-hermonville 26-07-2026 - 03:24 18.9°C / 63%
h3-hermonville 26-07-2026 - 03:20 19.2°C / 62%
h4-hermonville 26-07-2026 - 03:18 20.2°C / 57.5%
h2-hermonville 26-07-2026 - 03:14 17.9°C / 67%
h1-hermonville 26-07-2026 - 03:14 19.1°C / 62.5%
h3-hermonville 26-07-2026 - 03:10 19.1°C / 62%
h4-hermonville 26-07-2026 - 03:08 20.3°C / 57%
h2-hermonville 26-07-2026 - 03:04 17.9°C / 66%
h1-hermonville 26-07-2026 - 03:04 19.2°C / 62%
h3-hermonville 26-07-2026 - 03:00 19.1°C / 62%
h4-hermonville 26-07-2026 - 02:58 20.5°C / 56.5%
h2-hermonville 26-07-2026 - 02:54 18°C / 66.5%
h1-hermonville 26-07-2026 - 02:54 19.2°C / 62%
h3-hermonville 26-07-2026 - 02:50 19.1°C / 62.5%
h4-hermonville 26-07-2026 - 02:48 20.5°C / 56.5%
h2-hermonville 26-07-2026 - 02:44 18.3°C / 65.5%
h1-hermonville 26-07-2026 - 02:44 19.5°C / 61%
h3-hermonville 26-07-2026 - 02:40 19.6°C / 60%
h4-hermonville 26-07-2026 - 02:38 20.7°C / 55.5%
h2-hermonville 26-07-2026 - 02:34 18.5°C / 64%
h1-hermonville 26-07-2026 - 02:34 19.6°C / 60.5%
h3-hermonville 26-07-2026 - 02:30 19.9°C / 58.5%
h4-hermonville 26-07-2026 - 02:28 20.7°C / 55.5%
h2-hermonville 26-07-2026 - 02:24 19.2°C / 61.5%
h1-hermonville 26-07-2026 - 02:24 19.8°C / 59.5%
h3-hermonville 26-07-2026 - 02:20 20.9°C / 56.5%
h4-hermonville 26-07-2026 - 02:18 20.8°C / 55.5%
h2-hermonville 26-07-2026 - 02:14 19.6°C / 61%
h1-hermonville 26-07-2026 - 02:14 20.1°C / 59.5%
h3-hermonville 26-07-2026 - 02:10 20.8°C / 56.5%
h4-hermonville 26-07-2026 - 02:08 21.1°C / 54.5%
h2-hermonville 26-07-2026 - 02:04 20.2°C / 58.5%
h1-hermonville 26-07-2026 - 02:04 20°C / 59%
h3-hermonville 26-07-2026 - 02:00 20.9°C / 55.5%
h4-hermonville 26-07-2026 - 01:58 21.3°C / 53.5%
h2-hermonville 26-07-2026 - 01:54 20.6°C / 57%
h1-hermonville 26-07-2026 - 01:54 20°C / 57.5%
h3-hermonville 26-07-2026 - 01:50 21.1°C / 55%
h4-hermonville 26-07-2026 - 01:48 21.5°C / 54%
h2-hermonville 26-07-2026 - 01:44 20.8°C / 57%
h1-hermonville 26-07-2026 - 01:44 20.2°C / 58.5%
h3-hermonville 26-07-2026 - 01:40 21.2°C / 55.5%
h4-hermonville 26-07-2026 - 01:38 21.5°C / 55%
h2-hermonville 26-07-2026 - 01:34 20.8°C / 59%
h1-hermonville 26-07-2026 - 01:34 20.3°C / 60%
h3-hermonville 26-07-2026 - 01:30 21.6°C / 56%
h4-hermonville 26-07-2026 - 01:28 21.5°C / 55.5%
h2-hermonville 26-07-2026 - 01:24 20.6°C / 59%
h1-hermonville 26-07-2026 - 01:24 20.7°C / 59%
h3-hermonville 26-07-2026 - 01:20 21.7°C / 55.5%
h4-hermonville 26-07-2026 - 01:18 21.5°C / 54.5%
h2-hermonville 26-07-2026 - 01:14 21.1°C / 57.5%
h1-hermonville 26-07-2026 - 01:14 20.8°C / 58.5%
h3-hermonville 26-07-2026 - 01:10 21.8°C / 55.5%
h4-hermonville 26-07-2026 - 01:08 21.9°C / 54%
h2-hermonville 26-07-2026 - 01:04 21.3°C / 57%
h1-hermonville 26-07-2026 - 01:04 20.9°C / 58.5%
h3-hermonville 26-07-2026 - 01:00 22°C / 55%
h4-hermonville 26-07-2026 - 00:58 22°C / 54%
h2-hermonville 26-07-2026 - 00:54 21.6°C / 56.5%
h1-hermonville 26-07-2026 - 00:54 21.1°C / 58%
h3-hermonville 26-07-2026 - 00:50 22°C / 55%
h4-hermonville 26-07-2026 - 00:48 22.3°C / 53.5%
h2-hermonville 26-07-2026 - 00:44 22.4°C / 54%
h1-hermonville 26-07-2026 - 00:44 21.3°C / 57.5%
h3-hermonville 26-07-2026 - 00:40 22°C / 54%
h4-hermonville 26-07-2026 - 00:38 22.5°C / 52%
h2-hermonville 26-07-2026 - 00:34 23.7°C / 50.5%
h1-hermonville 26-07-2026 - 00:34 21.4°C / 56%
h3-hermonville 26-07-2026 - 00:30 22.2°C / 53.5%
h4-hermonville 26-07-2026 - 00:28 22.7°C / 51.5%
h2-hermonville 26-07-2026 - 00:24 24°C / 50%
h1-hermonville 26-07-2026 - 00:24 21.8°C / 55.5%
h3-hermonville 26-07-2026 - 00:20 22.3°C / 53%
h4-hermonville 26-07-2026 - 00:18 22.7°C / 51.5%
h2-hermonville 26-07-2026 - 00:14 24°C / 49.5%
h1-hermonville 26-07-2026 - 00:14 21.7°C / 55.5%
h3-hermonville 26-07-2026 - 00:10 22.4°C / 53%
h4-hermonville 26-07-2026 - 00:08 22.9°C / 51%
h2-hermonville 26-07-2026 - 00:04 24.2°C / 49.5%
h1-hermonville 26-07-2026 - 00:04 21.8°C / 54.5%
h3-hermonville 26-07-2026 - 00:00 22.5°C / 52.5%